sensor_id;sensor_type;location;lat;lon;timestamp;temperature;humidity
74178;DHT22;62540;48.456;-4.456;2022-10-19T00:00:47;20.38;79.82
74178;DHT22;62540;48.456;-4.456;2022-10-19T00:03:13;20.38;80.59
74178;DHT22;62540;48.456;-4.456;2022-10-19T00:05:39;20.33;79.93
74178;DHT22;62540;48.456;-4.456;2022-10-19T00:08:05;20.38;79.86
74178;DHT22;62540;48.456;-4.456;2022-10-19T00:10:30;20.35;80.36
74178;DHT22;62540;48.456;-4.456;2022-10-19T00:12:56;20.33;79.92
74178;DHT22;62540;48.456;-4.456;2022-10-19T00:15:22;20.32;80.79
74178;DHT22;62540;48.456;-4.456;2022-10-19T00:17:47;20.35;80.30
74178;DHT22;62540;48.456;-4.456;2022-10-19T00:20:13;20.33;81.04
74178;DHT22;62540;48.456;-4.456;2022-10-19T00:22:38;20.33;79.94
74178;DHT22;62540;48.456;-4.456;2022-10-19T00:25:04;20.32;80.05
74178;DHT22;62540;48.456;-4.456;2022-10-19T00:27:29;20.28;80.39
74178;DHT22;62540;48.456;-4.456;2022-10-19T00:29:57;20.29;80.16
74178;DHT22;62540;48.456;-4.456;2022-10-19T00:32:23;20.28;80.41
74178;DHT22;62540;48.456;-4.456;2022-10-19T00:34:48;20.26;80.55
74178;DHT22;62540;48.456;-4.456;2022-10-19T00:37:14;20.26;80.37
74178;DHT22;62540;48.456;-4.456;2022-10-19T00:39:39;20.26;80.17
74178;DHT22;62540;48.456;-4.456;2022-10-19T00:42:05;20.28;80.13
74178;DHT22;62540;48.456;-4.456;2022-10-19T00:47:03;20.29;80.07
74178;DHT22;62540;48.456;-4.456;2022-10-19T00:49:32;20.29;80.39
74178;DHT22;62540;48.456;-4.456;2022-10-19T00:52:04;20.31;80.15
74178;DHT22;62540;48.456;-4.456;2022-10-19T00:54:31;20.32;79.75
74178;DHT22;62540;48.456;-4.456;2022-10-19T00:56:58;20.33;80.01
74178;DHT22;62540;48.456;-4.456;2022-10-19T00:59:26;20.33;80.65
74178;DHT22;62540;48.456;-4.456;2022-10-19T01:01:53;20.33;79.90
74178;DHT22;62540;48.456;-4.456;2022-10-19T01:04:22;20.38;80.20
74178;DHT22;62540;48.456;-4.456;2022-10-19T01:06:48;20.35;80.54
74178;DHT22;62540;48.456;-4.456;2022-10-19T01:09:14;20.32;80.08
74178;DHT22;62540;48.456;-4.456;2022-10-19T01:25:37;20.28;80.63
74178;DHT22;62540;48.456;-4.456;2022-10-19T01:39:20;20.31;80.21
74178;DHT22;62540;48.456;-4.456;2022-10-19T01:44:21;20.32;80.06
74178;DHT22;62540;48.456;-4.456;2022-10-19T01:46:53;20.33;80.11
74178;DHT22;62540;48.456;-4.456;2022-10-19T01:49:47;20.35;80.22
74178;DHT22;62540;48.456;-4.456;2022-10-19T01:52:16;20.35;79.82
74178;DHT22;62540;48.456;-4.456;2022-10-19T01:54:47;20.36;79.92
74178;DHT22;62540;48.456;-4.456;2022-10-19T01:57:17;20.35;79.85
74178;DHT22;62540;48.456;-4.456;2022-10-19T01:59:46;20.35;79.74
74178;DHT22;62540;48.456;-4.456;2022-10-19T02:02:13;20.36;79.58
74178;DHT22;62540;48.456;-4.456;2022-10-19T02:04:39;20.42;79.60
74178;DHT22;62540;48.456;-4.456;2022-10-19T02:07:07;20.42;79.47
74178;DHT22;62540;48.456;-4.456;2022-10-19T02:09:32;20.43;79.51
74178;DHT22;62540;48.456;-4.456;2022-10-19T02:12:01;20.42;79.82
74178;DHT22;62540;48.456;-4.456;2022-10-19T02:14:35;20.38;79.55
74178;DHT22;62540;48.456;-4.456;2022-10-19T02:17:05;20.43;79.33
74178;DHT22;62540;48.456;-4.456;2022-10-19T02:19:33;20.43;79.44
74178;DHT22;62540;48.456;-4.456;2022-10-19T02:21:58;20.45;79.07
74178;DHT22;62540;48.456;-4.456;2022-10-19T02:24:24;20.49;78.88
74178;DHT22;62540;48.456;-4.456;2022-10-19T02:26:50;20.51;78.91
74178;DHT22;62540;48.456;-4.456;2022-10-19T02:29:16;20.45;79.05
74178;DHT22;62540;48.456;-4.456;2022-10-19T02:31:42;20.48;79.12
74178;DHT22;62540;48.456;-4.456;2022-10-19T02:34:08;20.46;78.92
74178;DHT22;62540;48.456;-4.456;2022-10-19T02:36:34;20.46;79.12
74178;DHT22;62540;48.456;-4.456;2022-10-19T02:39:00;20.43;79.31
74178;DHT22;62540;48.456;-4.456;2022-10-19T02:41:36;20.41;79.48
74178;DHT22;62540;48.456;-4.456;2022-10-19T02:44:08;20.43;79.38
74178;DHT22;62540;48.456;-4.456;2022-10-19T02:46:44;20.42;79.35
74178;DHT22;62540;48.456;-4.456;2022-10-19T02:49:12;20.42;79.22
74178;DHT22;62540;48.456;-4.456;2022-10-19T02:51:40;20.39;79.38
74178;DHT22;62540;48.456;-4.456;2022-10-19T02:54:18;20.38;79.49
74178;DHT22;62540;48.456;-4.456;2022-10-19T02:56:44;20.35;79.64
74178;DHT22;62540;48.456;-4.456;2022-10-19T02:59:09;20.35;79.53
74178;DHT22;62540;48.456;-4.456;2022-10-19T03:01:35;20.36;79.55
74178;DHT22;62540;48.456;-4.456;2022-10-19T03:04:00;20.35;79.33
74178;DHT22;62540;48.456;-4.456;2022-10-19T03:06:26;20.42;79.02
74178;DHT22;62540;48.456;-4.456;2022-10-19T03:08:51;20.41;79.21
74178;DHT22;62540;48.456;-4.456;2022-10-19T03:11:16;20.41;79.05
74178;DHT22;62540;48.456;-4.456;2022-10-19T03:13:42;20.43;79.03
74178;DHT22;62540;48.456;-4.456;2022-10-19T03:16:12;20.48;78.74
74178;DHT22;62540;48.456;-4.456;2022-10-19T03:18:38;20.46;78.63
74178;DHT22;62540;48.456;-4.456;2022-10-19T03:21:09;20.45;78.64
74178;DHT22;62540;48.456;-4.456;2022-10-19T03:23:35;20.51;78.66
74178;DHT22;62540;48.456;-4.456;2022-10-19T03:26:01;20.46;78.59
74178;DHT22;62540;48.456;-4.456;2022-10-19T03:28:27;20.48;78.57
74178;DHT22;62540;48.456;-4.456;2022-10-19T03:30:53;20.46;78.40
74178;DHT22;62540;48.456;-4.456;2022-10-19T03:33:18;20.45;78.42
74178;DHT22;62540;48.456;-4.456;2022-10-19T03:35:44;20.46;78.38
74178;DHT22;62540;48.456;-4.456;2022-10-19T03:38:09;20.48;78.40
74178;DHT22;62540;48.456;-4.456;2022-10-19T03:40:35;20.41;78.45
74178;DHT22;62540;48.456;-4.456;2022-10-19T03:43:01;20.41;78.39
74178;DHT22;62540;48.456;-4.456;2022-10-19T03:45:26;20.33;78.59
74178;DHT22;62540;48.456;-4.456;2022-10-19T03:47:52;20.32;78.72
74178;DHT22;62540;48.456;-4.456;2022-10-19T03:50:17;20.31;78.76
74178;DHT22;62540;48.456;-4.456;2022-10-19T03:52:43;20.25;78.93
74178;DHT22;62540;48.456;-4.456;2022-10-19T03:55:09;20.26;78.92
74178;DHT22;62540;48.456;-4.456;2022-10-19T03:57:36;20.22;78.91
74178;DHT22;62540;48.456;-4.456;2022-10-19T04:00:03;20.21;79.01
74178;DHT22;62540;48.456;-4.456;2022-10-19T04:02:29;20.18;78.98
74178;DHT22;62540;48.456;-4.456;2022-10-19T04:04:54;20.18;79.08
74178;DHT22;62540;48.456;-4.456;2022-10-19T04:07:20;20.17;79.13
74178;DHT22;62540;48.456;-4.456;2022-10-19T04:09:45;20.15;78.99
74178;DHT22;62540;48.456;-4.456;2022-10-19T04:12:10;20.17;79.05
74178;DHT22;62540;48.456;-4.456;2022-10-19T04:14:36;20.18;79.09
74178;DHT22;62540;48.456;-4.456;2022-10-19T04:17:02;20.17;79.22
74178;DHT22;62540;48.456;-4.456;2022-10-19T04:19:28;20.15;79.23
74178;DHT22;62540;48.456;-4.456;2022-10-19T04:21:54;20.14;78.86
74178;DHT22;62540;48.456;-4.456;2022-10-19T04:24:19;20.11;79.07
74178;DHT22;62540;48.456;-4.456;2022-10-19T04:26:47;20.07;79.02
74178;DHT22;62540;48.456;-4.456;2022-10-19T04:29:15;20.04;79.04
74178;DHT22;62540;48.456;-4.456;2022-10-19T04:31:40;20.00;78.87
74178;DHT22;62540;48.456;-4.456;2022-10-19T04:34:06;19.94;79.02
74178;DHT22;62540;48.456;-4.456;2022-10-19T04:36:32;19.90;79.11
74178;DHT22;62540;48.456;-4.456;2022-10-19T04:38:57;19.85;79.05
74178;DHT22;62540;48.456;-4.456;2022-10-19T04:41:23;19.81;79.09
74178;DHT22;62540;48.456;-4.456;2022-10-19T04:43:54;19.81;78.98
74178;DHT22;62540;48.456;-4.456;2022-10-19T04:46:20;19.78;79.09
74178;DHT22;62540;48.456;-4.456;2022-10-19T04:48:47;19.77;79.04
74178;DHT22;62540;48.456;-4.456;2022-10-19T04:51:13;19.70;79.20
74178;DHT22;62540;48.456;-4.456;2022-10-19T04:53:40;19.71;79.19
74178;DHT22;62540;48.456;-4.456;2022-10-19T04:56:08;19.73;79.03
74178;DHT22;62540;48.456;-4.456;2022-10-19T04:58:34;19.74;79.07
74178;DHT22;62540;48.456;-4.456;2022-10-19T05:01:07;19.67;79.11
74178;DHT22;62540;48.456;-4.456;2022-10-19T05:03:33;19.66;79.10
74178;DHT22;62540;48.456;-4.456;2022-10-19T05:05:58;19.69;79.01
74178;DHT22;62540;48.456;-4.456;2022-10-19T05:08:24;19.71;78.98
74178;DHT22;62540;48.456;-4.456;2022-10-19T05:10:49;19.70;79.01
74178;DHT22;62540;48.456;-4.456;2022-10-19T05:13:14;19.67;79.05
74178;DHT22;62540;48.456;-4.456;2022-10-19T05:15:40;19.69;79.07
74178;DHT22;62540;48.456;-4.456;2022-10-19T05:18:05;19.64;79.14
74178;DHT22;62540;48.456;-4.456;2022-10-19T05:20:31;19.59;79.05
74178;DHT22;62540;48.456;-4.456;2022-10-19T05:22:56;19.53;79.69
74178;DHT22;62540;48.456;-4.456;2022-10-19T05:25:21;19.45;79.81
74178;DHT22;62540;48.456;-4.456;2022-10-19T05:27:51;19.37;79.92
74178;DHT22;62540;48.456;-4.456;2022-10-19T05:30:17;19.33;79.63
74178;DHT22;62540;48.456;-4.456;2022-10-19T05:32:43;19.27;81.09
74178;DHT22;62540;48.456;-4.456;2022-10-19T05:35:08;19.20;80.79
74178;DHT22;62540;48.456;-4.456;2022-10-19T05:37:34;19.12;80.90
74178;DHT22;62540;48.456;-4.456;2022-10-19T05:39:59;19.09;81.00
74178;DHT22;62540;48.456;-4.456;2022-10-19T05:42:25;19.09;81.10
74178;DHT22;62540;48.456;-4.456;2022-10-19T05:44:50;19.08;81.05
74178;DHT22;62540;48.456;-4.456;2022-10-19T05:47:15;19.04;81.09
74178;DHT22;62540;48.456;-4.456;2022-10-19T05:49:41;19.01;81.07
74178;DHT22;62540;48.456;-4.456;2022-10-19T05:52:07;18.96;81.06
74178;DHT22;62540;48.456;-4.456;2022-10-19T05:54:32;18.92;81.56
74178;DHT22;62540;48.456;-4.456;2022-10-19T05:56:58;18.91;81.47
74178;DHT22;62540;48.456;-4.456;2022-10-19T05:59:23;18.84;81.45
74178;DHT22;62540;48.456;-4.456;2022-10-19T06:01:49;18.79;81.87
74178;DHT22;62540;48.456;-4.456;2022-10-19T06:04:14;18.79;81.76
74178;DHT22;62540;48.456;-4.456;2022-10-19T06:06:41;18.78;81.78
74178;DHT22;62540;48.456;-4.456;2022-10-19T06:09:07;18.77;82.08
74178;DHT22;62540;48.456;-4.456;2022-10-19T06:11:36;18.71;82.03
74178;DHT22;62540;48.456;-4.456;2022-10-19T06:14:04;18.72;82.00
74178;DHT22;62540;48.456;-4.456;2022-10-19T06:16:30;18.71;82.09
74178;DHT22;62540;48.456;-4.456;2022-10-19T06:18:57;18.68;82.52
74178;DHT22;62540;48.456;-4.456;2022-10-19T06:21:27;18.67;82.33
74178;DHT22;62540;48.456;-4.456;2022-10-19T06:23:55;18.68;82.08
74178;DHT22;62540;48.456;-4.456;2022-10-19T06:26:22;18.65;82.05
74178;DHT22;62540;48.456;-4.456;2022-10-19T06:28:48;18.64;82.28
74178;DHT22;62540;48.456;-4.456;2022-10-19T06:31:14;18.61;82.81
74178;DHT22;62540;48.456;-4.456;2022-10-19T06:33:41;18.64;82.74
74178;DHT22;62540;48.456;-4.456;2022-10-19T06:36:13;18.63;82.57
74178;DHT22;62540;48.456;-4.456;2022-10-19T06:38:40;18.61;82.58
74178;DHT22;62540;48.456;-4.456;2022-10-19T06:41:06;18.57;82.52
74178;DHT22;62540;48.456;-4.456;2022-10-19T06:43:32;18.61;82.80
74178;DHT22;62540;48.456;-4.456;2022-10-19T06:45:59;18.57;83.66
74178;DHT22;62540;48.456;-4.456;2022-10-19T06:48:27;18.56;82.91
74178;DHT22;62540;48.456;-4.456;2022-10-19T06:50:56;18.57;82.78
74178;DHT22;62540;48.456;-4.456;2022-10-19T06:53:22;18.58;82.69
74178;DHT22;62540;48.456;-4.456;2022-10-19T06:55:48;18.58;82.86
74178;DHT22;62540;48.456;-4.456;2022-10-19T06:58:13;18.58;82.76
74178;DHT22;62540;48.456;-4.456;2022-10-19T07:00:38;18.57;83.09
74178;DHT22;62540;48.456;-4.456;2022-10-19T07:03:04;18.60;82.59
74178;DHT22;62540;48.456;-4.456;2022-10-19T07:05:29;18.60;82.26
74178;DHT22;62540;48.456;-4.456;2022-10-19T07:07:56;18.63;82.26
74178;DHT22;62540;48.456;-4.456;2022-10-19T07:10:21;18.63;82.41
74178;DHT22;62540;48.456;-4.456;2022-10-19T07:12:47;18.64;82.55
74178;DHT22;62540;48.456;-4.456;2022-10-19T07:15:12;18.65;82.55
74178;DHT22;62540;48.456;-4.456;2022-10-19T07:17:37;18.67;82.62
74178;DHT22;62540;48.456;-4.456;2022-10-19T07:20:03;18.69;82.37
74178;DHT22;62540;48.456;-4.456;2022-10-19T07:22:29;18.69;82.92
74178;DHT22;62540;48.456;-4.456;2022-10-19T07:24:54;18.72;82.81
74178;DHT22;62540;48.456;-4.456;2022-10-19T07:27:20;18.75;82.28
74178;DHT22;62540;48.456;-4.456;2022-10-19T07:29:45;18.81;82.39
74178;DHT22;62540;48.456;-4.456;2022-10-19T07:32:10;18.83;82.40
74178;DHT22;62540;48.456;-4.456;2022-10-19T07:34:36;18.89;82.31
74178;DHT22;62540;48.456;-4.456;2022-10-19T07:37:01;18.89;82.19
74178;DHT22;62540;48.456;-4.456;2022-10-19T07:39:27;18.92;81.85
74178;DHT22;62540;48.456;-4.456;2022-10-19T07:41:52;18.94;82.35
74178;DHT22;62540;48.456;-4.456;2022-10-19T07:44:18;18.98;82.21
74178;DHT22;62540;48.456;-4.456;2022-10-19T07:46:43;18.99;82.40
74178;DHT22;62540;48.456;-4.456;2022-10-19T07:49:12;19.04;82.22
74178;DHT22;62540;48.456;-4.456;2022-10-19T07:51:39;19.06;82.31
74178;DHT22;62540;48.456;-4.456;2022-10-19T07:54:05;19.06;82.08
74178;DHT22;62540;48.456;-4.456;2022-10-19T07:56:31;19.12;82.09
74178;DHT22;62540;48.456;-4.456;2022-10-19T07:58:58;19.18;82.05
74178;DHT22;62540;48.456;-4.456;2022-10-19T08:01:26;19.22;81.88
74178;DHT22;62540;48.456;-4.456;2022-10-19T08:03:53;19.27;81.97
74178;DHT22;62540;48.456;-4.456;2022-10-19T08:06:20;19.36;81.81
74178;DHT22;62540;48.456;-4.456;2022-10-19T08:08:47;19.39;81.59
74178;DHT22;62540;48.456;-4.456;2022-10-19T08:11:17;19.47;81.43
74178;DHT22;62540;48.456;-4.456;2022-10-19T08:13:43;19.50;81.42
74178;DHT22;62540;48.456;-4.456;2022-10-19T08:19:14;19.63;80.94
74178;DHT22;62540;48.456;-4.456;2022-10-19T08:21:42;19.67;80.72
74178;DHT22;62540;48.456;-4.456;2022-10-19T08:24:09;19.83;80.64
74178;DHT22;62540;48.456;-4.456;2022-10-19T08:26:37;20.01;79.50
74178;DHT22;62540;48.456;-4.456;2022-10-19T08:29:07;20.25;79.80
74178;DHT22;62540;48.456;-4.456;2022-10-19T08:31:34;20.42;78.65
74178;DHT22;62540;48.456;-4.456;2022-10-19T08:34:00;20.49;78.45
74178;DHT22;62540;48.456;-4.456;2022-10-19T08:36:25;20.76;78.63
74178;DHT22;62540;48.456;-4.456;2022-10-19T08:38:55;20.99;77.94
74178;DHT22;62540;48.456;-4.456;2022-10-19T08:49:56;21.14;76.09
74178;DHT22;62540;48.456;-4.456;2022-10-19T08:52:33;21.26;76.31
74178;DHT22;62540;48.456;-4.456;2022-10-19T08:55:06;21.10;75.73
74178;DHT22;62540;48.456;-4.456;2022-10-19T09:05:42;21.04;76.52
74178;DHT22;62540;48.456;-4.456;2022-10-19T09:08:10;20.99;76.46
74178;DHT22;62540;48.456;-4.456;2022-10-19T09:10:40;20.96;76.85
74178;DHT22;62540;48.456;-4.456;2022-10-19T09:15:55;21.01;76.38
74178;DHT22;62540;48.456;-4.456;2022-10-19T09:20:50;21.14;76.65
74178;DHT22;62540;48.456;-4.456;2022-10-19T09:26:17;21.31;75.40
74178;DHT22;62540;48.456;-4.456;2022-10-19T09:29:15;21.34;75.41
74178;DHT22;62540;48.456;-4.456;2022-10-19T09:31:45;21.48;76.01
74178;DHT22;62540;48.456;-4.456;2022-10-19T09:34:19;21.58;74.75
74178;DHT22;62540;48.456;-4.456;2022-10-19T09:36:51;21.83;74.49
74178;DHT22;62540;48.456;-4.456;2022-10-19T09:39:17;21.85;73.35
74178;DHT22;62540;48.456;-4.456;2022-10-19T09:41:44;21.99;73.88
74178;DHT22;62540;48.456;-4.456;2022-10-19T09:44:11;22.17;73.43
74178;DHT22;62540;48.456;-4.456;2022-10-19T09:46:48;22.44;72.39
74178;DHT22;62540;48.456;-4.456;2022-10-19T09:49:36;22.63;71.70
74178;DHT22;62540;48.456;-4.456;2022-10-19T09:52:02;22.90;70.62
74178;DHT22;62540;48.456;-4.456;2022-10-19T09:54:34;23.13;71.06
74178;DHT22;62540;48.456;-4.456;2022-10-19T09:57:01;23.23;69.92
74178;DHT22;62540;48.456;-4.456;2022-10-19T09:59:35;23.30;69.51
74178;DHT22;62540;48.456;-4.456;2022-10-19T10:04:29;23.61;70.08
74178;DHT22;62540;48.456;-4.456;2022-10-19T10:06:55;23.74;69.01
74178;DHT22;62540;48.456;-4.456;2022-10-19T10:09:24;23.75;68.96
74178;DHT22;62540;48.456;-4.456;2022-10-19T10:11:51;23.75;68.95
74178;DHT22;62540;48.456;-4.456;2022-10-19T10:14:29;23.67;69.18
74178;DHT22;62540;48.456;-4.456;2022-10-19T10:17:01;23.60;68.18
74178;DHT22;62540;48.456;-4.456;2022-10-19T10:19:29;23.57;68.86
74178;DHT22;62540;48.456;-4.456;2022-10-19T10:21:56;23.47;68.68
74178;DHT22;62540;48.456;-4.456;2022-10-19T10:24:27;23.38;68.89
74178;DHT22;62540;48.456;-4.456;2022-10-19T10:26:59;23.34;68.78
74178;DHT22;62540;48.456;-4.456;2022-10-19T10:29:33;23.32;68.67
74178;DHT22;62540;48.456;-4.456;2022-10-19T10:36:55;23.33;69.40
74178;DHT22;62540;48.456;-4.456;2022-10-19T10:39:22;23.45;68.82
74178;DHT22;62540;48.456;-4.456;2022-10-19T10:41:49;23.54;68.76
74178;DHT22;62540;48.456;-4.456;2022-10-19T10:44:26;23.63;68.43
74178;DHT22;62540;48.456;-4.456;2022-10-19T10:46:59;23.70;68.18
74178;DHT22;62540;48.456;-4.456;2022-10-19T10:49:28;23.73;68.91
74178;DHT22;62540;48.456;-4.456;2022-10-19T10:51:59;23.63;68.54
74178;DHT22;62540;48.456;-4.456;2022-10-19T10:54:29;23.60;67.61
74178;DHT22;62540;48.456;-4.456;2022-10-19T10:57:03;23.52;68.28
74178;DHT22;62540;48.456;-4.456;2022-10-19T11:04:45;23.50;69.16
74178;DHT22;62540;48.456;-4.456;2022-10-19T11:07:18;23.49;68.36
74178;DHT22;62540;48.456;-4.456;2022-10-19T11:09:50;23.67;68.89
74178;DHT22;62540;48.456;-4.456;2022-10-19T11:12:20;23.98;66.83
74178;DHT22;62540;48.456;-4.456;2022-10-19T11:17:38;24.65;66.56
74178;DHT22;62540;48.456;-4.456;2022-10-19T11:20:13;24.72;66.10
74178;DHT22;62540;48.456;-4.456;2022-10-19T11:30:56;25.76;61.78
74178;DHT22;62540;48.456;-4.456;2022-10-19T11:33:32;25.90;60.78
74178;DHT22;62540;48.456;-4.456;2022-10-19T11:36:03;26.16;61.34
74178;DHT22;62540;48.456;-4.456;2022-10-19T11:38:48;26.37;57.53
74178;DHT22;62540;48.456;-4.456;2022-10-19T11:44:05;26.45;59.22
74178;DHT22;62540;48.456;-4.456;2022-10-19T12:00:23;25.81;59.21
74178;DHT22;62540;48.456;-4.456;2022-10-19T12:13:26;25.55;60.62
74178;DHT22;62540;48.456;-4.456;2022-10-19T12:15:54;25.64;60.30
74178;DHT22;62540;48.456;-4.456;2022-10-19T12:18:40;25.74;60.45
74178;DHT22;62540;48.456;-4.456;2022-10-19T12:21:21;25.85;60.22
74178;DHT22;62540;48.456;-4.456;2022-10-19T12:23:49;25.79;59.55
74178;DHT22;62540;48.456;-4.456;2022-10-19T12:26:16;25.82;59.95
74178;DHT22;62540;48.456;-4.456;2022-10-19T12:28:51;25.90;60.19
74178;DHT22;62540;48.456;-4.456;2022-10-19T12:31:21;25.86;58.57
74178;DHT22;62540;48.456;-4.456;2022-10-19T12:42:17;25.44;60.07
74178;DHT22;62540;48.456;-4.456;2022-10-19T12:47:33;25.31;60.72
74178;DHT22;62540;48.456;-4.456;2022-10-19T12:49:59;25.28;60.23
74178;DHT22;62540;48.456;-4.456;2022-10-19T12:52:39;25.27;61.07
74178;DHT22;62540;48.456;-4.456;2022-10-19T12:57:46;24.87;60.49
74178;DHT22;62540;48.456;-4.456;2022-10-19T13:00:21;24.63;60.80
74178;DHT22;62540;48.456;-4.456;2022-10-19T13:02:55;24.63;61.84
74178;DHT22;62540;48.456;-4.456;2022-10-19T13:05:23;24.69;61.76
74178;DHT22;62540;48.456;-4.456;2022-10-19T13:07:50;24.72;61.52
74178;DHT22;62540;48.456;-4.456;2022-10-19T13:10:25;24.53;61.48
74178;DHT22;62540;48.456;-4.456;2022-10-19T13:12:51;24.40;61.90
74178;DHT22;62540;48.456;-4.456;2022-10-19T13:18:15;24.21;62.43
74178;DHT22;62540;48.456;-4.456;2022-10-19T13:20:58;24.17;62.65
74178;DHT22;62540;48.456;-4.456;2022-10-19T13:26:23;24.08;63.30
74178;DHT22;62540;48.456;-4.456;2022-10-19T13:28:55;24.00;63.39
74178;DHT22;62540;48.456;-4.456;2022-10-19T13:31:24;23.97;63.66
74178;DHT22;62540;48.456;-4.456;2022-10-19T13:33:50;23.80;63.88
74178;DHT22;62540;48.456;-4.456;2022-10-19T13:36:17;23.73;64.34
74178;DHT22;62540;48.456;-4.456;2022-10-19T13:41:43;23.63;64.66
74178;DHT22;62540;48.456;-4.456;2022-10-19T13:44:16;23.56;64.61
74178;DHT22;62540;48.456;-4.456;2022-10-19T13:55:10;23.09;66.01
74178;DHT22;62540;48.456;-4.456;2022-10-19T13:58:05;23.16;66.01
74178;DHT22;62540;48.456;-4.456;2022-10-19T14:06:39;23.02;66.21
74178;DHT22;62540;48.456;-4.456;2022-10-19T14:09:24;22.92;66.39
74178;DHT22;62540;48.456;-4.456;2022-10-19T14:12:05;22.78;66.61
74178;DHT22;62540;48.456;-4.456;2022-10-19T14:14:39;22.78;66.69
74178;DHT22;62540;48.456;-4.456;2022-10-19T14:17:19;22.75;66.91
74178;DHT22;62540;48.456;-4.456;2022-10-19T14:19:47;22.71;67.39
74178;DHT22;62540;48.456;-4.456;2022-10-19T14:22:21;22.71;67.20
74178;DHT22;62540;48.456;-4.456;2022-10-19T14:24:47;22.65;67.44
74178;DHT22;62540;48.456;-4.456;2022-10-19T14:27:20;22.58;67.71
74178;DHT22;62540;48.456;-4.456;2022-10-19T14:29:50;22.55;67.73
74178;DHT22;62540;48.456;-4.456;2022-10-19T14:32:18;22.55;67.66
74178;DHT22;62540;48.456;-4.456;2022-10-19T14:34:47;22.58;68.08
74178;DHT22;62540;48.456;-4.456;2022-10-19T14:37:19;22.61;68.05
74178;DHT22;62540;48.456;-4.456;2022-10-19T14:40:07;22.64;67.80
74178;DHT22;62540;48.456;-4.456;2022-10-19T14:42:46;22.63;67.98
74178;DHT22;62540;48.456;-4.456;2022-10-19T14:45:20;22.65;67.92
74178;DHT22;62540;48.456;-4.456;2022-10-19T14:48:16;22.55;67.95
74178;DHT22;62540;48.456;-4.456;2022-10-19T14:50:45;22.53;68.08
74178;DHT22;62540;48.456;-4.456;2022-10-19T14:53:35;22.47;68.00
74178;DHT22;62540;48.456;-4.456;2022-10-19T14:56:12;22.48;68.21
74178;DHT22;62540;48.456;-4.456;2022-10-19T14:58:45;22.47;68.22
74178;DHT22;62540;48.456;-4.456;2022-10-19T15:01:12;22.47;68.42
74178;DHT22;62540;48.456;-4.456;2022-10-19T15:03:40;22.45;68.30
74178;DHT22;62540;48.456;-4.456;2022-10-19T15:06:06;22.40;68.46
74178;DHT22;62540;48.456;-4.456;2022-10-19T15:08:41;22.34;68.58
74178;DHT22;62540;48.456;-4.456;2022-10-19T15:13:46;22.30;68.70
74178;DHT22;62540;48.456;-4.456;2022-10-19T15:16:33;22.29;68.72
74178;DHT22;62540;48.456;-4.456;2022-10-19T15:19:16;22.33;68.15
74178;DHT22;62540;48.456;-4.456;2022-10-19T15:21:42;22.27;68.13
74178;DHT22;62540;48.456;-4.456;2022-10-19T15:24:22;22.21;67.81
74178;DHT22;62540;48.456;-4.456;2022-10-19T15:26:49;22.14;67.34
74178;DHT22;62540;48.456;-4.456;2022-10-19T15:29:28;22.05;66.45
74178;DHT22;62540;48.456;-4.456;2022-10-19T15:31:54;21.99;66.45
74178;DHT22;62540;48.456;-4.456;2022-10-19T15:34:29;21.82;64.96
74178;DHT22;62540;48.456;-4.456;2022-10-19T15:36:57;21.74;65.73
74178;DHT22;62540;48.456;-4.456;2022-10-19T15:39:28;21.69;66.01
74178;DHT22;62540;48.456;-4.456;2022-10-19T15:41:55;21.59;66.27
74178;DHT22;62540;48.456;-4.456;2022-10-19T15:44:42;21.59;66.91
74178;DHT22;62540;48.456;-4.456;2022-10-19T15:54:46;21.51;67.27
74178;DHT22;62540;48.456;-4.456;2022-10-19T15:57:27;21.44;67.13
74178;DHT22;62540;48.456;-4.456;2022-10-19T15:59:57;21.34;67.21
74178;DHT22;62540;48.456;-4.456;2022-10-19T16:02:23;21.34;67.40
74178;DHT22;62540;48.456;-4.456;2022-10-19T16:04:50;21.34;67.39
74178;DHT22;62540;48.456;-4.456;2022-10-19T16:07:42;21.24;67.08
74178;DHT22;62540;48.456;-4.456;2022-10-19T16:10:15;21.17;66.48
74178;DHT22;62540;48.456;-4.456;2022-10-19T16:12:41;21.08;66.20
74178;DHT22;62540;48.456;-4.456;2022-10-19T16:15:11;21.00;65.87
74178;DHT22;62540;48.456;-4.456;2022-10-19T16:17:37;21.01;65.52
74178;DHT22;62540;48.456;-4.456;2022-10-19T16:20:03;21.00;65.15
74178;DHT22;62540;48.456;-4.456;2022-10-19T16:22:28;20.93;65.60
74178;DHT22;62540;48.456;-4.456;2022-10-19T16:24:54;20.93;65.17
74178;DHT22;62540;48.456;-4.456;2022-10-19T16:27:19;20.89;64.94
74178;DHT22;62540;48.456;-4.456;2022-10-19T16:29:44;20.83;64.78
74178;DHT22;62540;48.456;-4.456;2022-10-19T16:32:10;20.81;64.83
74178;DHT22;62540;48.456;-4.456;2022-10-19T16:34:35;20.79;65.15
74178;DHT22;62540;48.456;-4.456;2022-10-19T16:37:01;20.80;64.90
74178;DHT22;62540;48.456;-4.456;2022-10-19T16:39:26;20.77;65.27
74178;DHT22;62540;48.456;-4.456;2022-10-19T16:41:52;20.72;64.85
74178;DHT22;62540;48.456;-4.456;2022-10-19T16:44:18;20.66;65.20
74178;DHT22;62540;48.456;-4.456;2022-10-19T16:46:43;20.62;65.20
74178;DHT22;62540;48.456;-4.456;2022-10-19T16:49:09;20.57;65.16
74178;DHT22;62540;48.456;-4.456;2022-10-19T16:51:38;20.52;65.67
74178;DHT22;62540;48.456;-4.456;2022-10-19T16:54:06;20.51;65.75
74178;DHT22;62540;48.456;-4.456;2022-10-19T16:56:32;20.48;65.71
74178;DHT22;62540;48.456;-4.456;2022-10-19T16:59:03;20.45;65.81
74178;DHT22;62540;48.456;-4.456;2022-10-19T17:01:30;20.42;65.88
74178;DHT22;62540;48.456;-4.456;2022-10-19T17:03:56;20.43;65.82
74178;DHT22;62540;48.456;-4.456;2022-10-19T17:06:23;20.43;66.08
74178;DHT22;62540;48.456;-4.456;2022-10-19T17:08:49;20.42;66.08
74178;DHT22;62540;48.456;-4.456;2022-10-19T17:11:26;20.35;66.28
74178;DHT22;62540;48.456;-4.456;2022-10-19T17:13:54;20.31;66.39
74178;DHT22;62540;48.456;-4.456;2022-10-19T17:16:21;20.26;66.76
74178;DHT22;62540;48.456;-4.456;2022-10-19T17:18:47;20.25;66.67
74178;DHT22;62540;48.456;-4.456;2022-10-19T17:21:17;20.18;66.67
74178;DHT22;62540;48.456;-4.456;2022-10-19T17:23:44;20.14;66.62
74178;DHT22;62540;48.456;-4.456;2022-10-19T17:26:10;20.11;66.78
74178;DHT22;62540;48.456;-4.456;2022-10-19T17:28:36;20.08;66.89
74178;DHT22;62540;48.456;-4.456;2022-10-19T17:31:08;20.04;66.72
74178;DHT22;62540;48.456;-4.456;2022-10-19T17:33:35;20.00;66.65
74178;DHT22;62540;48.456;-4.456;2022-10-19T17:38:30;19.88;65.91
74178;DHT22;62540;48.456;-4.456;2022-10-19T17:41:08;19.84;66.41
74178;DHT22;62540;48.456;-4.456;2022-10-19T17:43:35;19.77;66.93
74178;DHT22;62540;48.456;-4.456;2022-10-19T17:46:03;19.71;67.26
74178;DHT22;62540;48.456;-4.456;2022-10-19T17:48:30;19.67;67.44
74178;DHT22;62540;48.456;-4.456;2022-10-19T17:50:59;19.69;67.60
74178;DHT22;62540;48.456;-4.456;2022-10-19T17:53:26;19.67;67.40
74178;DHT22;62540;48.456;-4.456;2022-10-19T17:55:52;19.62;67.51
74178;DHT22;62540;48.456;-4.456;2022-10-19T17:58:18;19.53;67.00
74178;DHT22;62540;48.456;-4.456;2022-10-19T18:00:43;19.56;66.89
74178;DHT22;62540;48.456;-4.456;2022-10-19T18:03:09;19.53;67.12